createdAt,value
2022-12-18T00:02:21.050Z,9.40
2022-12-18T00:07:24.389Z,8.77
2022-12-18T00:12:29.893Z,9.18
2022-12-18T00:17:33.687Z,11.40
2022-12-18T00:22:37.204Z,12.43
2022-12-18T00:27:40.683Z,8.27
2022-12-18T00:32:44.042Z,7.70
2022-12-18T00:37:47.364Z,8.80
2022-12-18T00:42:50.823Z,9.13
2022-12-18T00:47:54.684Z,8.93
2022-12-18T00:52:58.551Z,9.68
2022-12-18T00:58:02.020Z,10.70
2022-12-18T01:03:06.764Z,7.95
2022-12-18T01:08:10.357Z,11.60
2022-12-18T01:13:13.686Z,9.88
2022-12-18T01:18:18.043Z,9.27
2022-12-18T01:23:21.660Z,7.05
2022-12-18T01:28:25.042Z,7.40
2022-12-18T01:33:29.617Z,9.45
2022-12-18T01:38:33.045Z,6.43
2022-12-18T01:43:48.318Z,7.75
2022-12-18T01:48:59.253Z,7.43
2022-12-18T01:54:04.092Z,8.93
2022-12-18T01:59:11.467Z,8.30
2022-12-18T02:04:27.863Z,8.82
2022-12-18T02:09:52.324Z,6.78
2022-12-18T02:15:01.832Z,6.97
2022-12-18T02:20:20.739Z,6.95
2022-12-18T02:25:42.713Z,6.90
2022-12-18T02:30:50.911Z,6.00
2022-12-18T02:35:56.760Z,6.50
2022-12-18T02:41:04.787Z,7.93
2022-12-18T02:46:35.004Z,5.57
2022-12-18T02:51:51.464Z,6.68
2022-12-18T02:57:04.580Z,6.45
2022-12-18T03:02:22.720Z,5.43
2022-12-18T03:07:39.622Z,6.50
2022-12-18T03:13:04.187Z,3.67
2022-12-18T03:18:21.340Z,4.05
2022-12-18T03:23:30.710Z,4.22
2022-12-18T03:28:40.391Z,6.07
2022-12-18T03:33:56.000Z,4.40
2022-12-18T03:39:06.916Z,4.93
2022-12-18T03:44:29.482Z,3.83
2022-12-18T03:49:57.643Z,4.78
2022-12-18T03:55:02.968Z,4.63
2022-12-18T04:00:14.705Z,3.47
2022-12-18T04:05:34.218Z,3.95
2022-12-18T04:10:38.693Z,3.88
2022-12-18T04:15:42.913Z,5.25
2022-12-18T04:20:50.798Z,3.88
2022-12-18T04:25:55.156Z,5.68
2022-12-18T04:31:13.201Z,2.83
2022-12-18T04:36:16.925Z,5.15
2022-12-18T04:41:22.715Z,8.43
2022-12-18T04:46:30.198Z,6.05
2022-12-18T04:51:33.577Z,4.45
2022-12-18T04:56:36.858Z,6.15
2022-12-18T05:01:40.391Z,5.82
2022-12-18T05:06:43.931Z,8.10
2022-12-18T05:11:47.167Z,8.10
2022-12-18T05:16:50.639Z,4.25
2022-12-18T05:21:54.701Z,10.60
2022-12-18T05:26:58.160Z,8.98
2022-12-18T05:32:01.633Z,7.82
2022-12-18T05:37:05.301Z,7.00
2022-12-18T05:42:08.692Z,8.43
2022-12-18T05:47:12.061Z,6.57
2022-12-18T05:52:16.604Z,5.70
2022-12-18T05:57:20.759Z,5.10
2022-12-18T06:02:24.202Z,4.57
2022-12-18T06:07:27.662Z,7.68
2022-12-18T06:12:30.913Z,6.55
2022-12-18T06:17:36.154Z,8.88
2022-12-18T06:22:39.604Z,6.55
2022-12-18T06:27:42.995Z,5.68
2022-12-18T06:32:50.485Z,13.15
2022-12-18T06:37:56.675Z,8.65
2022-12-18T06:43:00.008Z,6.93
2022-12-18T06:48:03.702Z,7.57
2022-12-18T06:53:07.280Z,7.20
2022-12-18T06:58:11.041Z,8.70
2022-12-18T07:03:15.401Z,7.93
2022-12-18T07:08:19.003Z,6.95
2022-12-18T07:13:22.476Z,6.95
2022-12-18T07:18:25.784Z,5.82
2022-12-18T07:23:30.030Z,5.05
2022-12-18T07:28:34.547Z,6.35
2022-12-18T07:33:38.115Z,7.70
2022-12-18T07:38:41.834Z,6.53
2022-12-18T07:43:45.608Z,9.15
2022-12-18T07:48:50.315Z,7.10
2022-12-18T07:53:59.326Z,10.30
2022-12-18T07:59:09.091Z,6.60
2022-12-18T08:04:13.590Z,11.00
2022-12-18T08:09:17.107Z,6.07
2022-12-18T08:14:20.397Z,8.40
2022-12-18T08:19:23.877Z,6.97
2022-12-18T08:24:27.243Z,7.82
2022-12-18T08:29:30.710Z,8.55
2022-12-18T08:34:34.391Z,15.23
2022-12-18T08:39:37.692Z,10.05
2022-12-18T08:44:41.072Z,6.38
2022-12-18T08:49:44.594Z,13.38
2022-12-18T08:54:47.993Z,7.20
2022-12-18T08:59:51.468Z,8.73
2022-12-18T09:04:57.696Z,10.68
2022-12-18T09:10:01.343Z,8.98
2022-12-18T09:15:06.536Z,9.25
2022-12-18T09:20:10.296Z,12.68
2022-12-18T09:25:13.569Z,10.40
2022-12-18T09:30:17.164Z,9.50
2022-12-18T09:35:20.950Z,6.93
2022-12-18T09:40:30.162Z,9.25
2022-12-18T09:45:44.861Z,6.47
2022-12-18T09:50:50.907Z,7.53
2022-12-18T09:55:54.310Z,12.38
2022-12-18T10:00:57.821Z,6.65
2022-12-18T10:06:22.468Z,7.07
2022-12-18T10:11:34.787Z,7.85
2022-12-18T10:16:44.804Z,5.30
2022-12-18T10:22:04.780Z,6.22
2022-12-18T10:27:16.428Z,5.53
2022-12-18T10:32:26.430Z,5.93
2022-12-18T10:37:31.345Z,7.55
2022-12-18T10:42:36.406Z,5.18
2022-12-18T10:47:50.979Z,6.28
2022-12-18T10:53:02.710Z,5.45
2022-12-18T10:58:26.940Z,8.30
2022-12-18T11:03:40.867Z,7.82
2022-12-18T11:09:02.059Z,10.05
2022-12-18T11:14:22.605Z,8.15
2022-12-18T11:19:38.085Z,5.53
2022-12-18T11:24:41.537Z,6.63
2022-12-18T11:29:46.879Z,6.13
2022-12-18T11:34:59.178Z,8.68
2022-12-18T11:40:12.930Z,5.30
2022-12-18T11:45:29.062Z,7.03
2022-12-18T11:50:38.206Z,5.40
2022-12-18T11:55:45.732Z,7.28
2022-12-18T12:01:10.988Z,7.35
2022-12-18T12:06:30.719Z,6.72
2022-12-18T12:11:47.818Z,7.88
2022-12-18T12:16:56.646Z,4.07
2022-12-18T12:22:19.594Z,6.78
2022-12-18T12:27:35.598Z,8.70
2022-12-18T12:33:13.383Z,9.68
2022-12-18T12:38:29.916Z,4.38
2022-12-18T12:49:16.506Z,6.00
2022-12-18T12:54:26.205Z,5.43
2022-12-18T12:59:32.470Z,4.10
2022-12-18T13:04:55.883Z,3.13
2022-12-18T13:10:27.499Z,4.78
2022-12-18T13:13:43.137Z,8.93
2022-12-18T13:15:46.762Z,6.60
2022-12-18T13:21:03.391Z,9.88
2022-12-18T13:26:07.404Z,7.00
2022-12-18T13:31:11.407Z,9.65
2022-12-18T13:36:24.375Z,9.20
2022-12-18T13:41:28.835Z,7.85
2022-12-18T13:46:51.225Z,7.40
2022-12-18T13:51:56.637Z,5.28
2022-12-18T13:57:01.134Z,12.70
2022-12-18T14:02:13.891Z,8.05
2022-12-18T14:07:20.662Z,10.60
2022-12-18T14:12:27.553Z,9.65
2022-12-18T14:17:33.096Z,15.23
2022-12-18T14:22:37.990Z,15.02
2022-12-18T14:27:53.176Z,14.75
2022-12-18T14:33:09.537Z,14.05
2022-12-18T14:38:19.380Z,15.55
2022-12-18T14:43:23.327Z,16.67
2022-12-18T14:48:42.165Z,21.02
2022-12-18T14:53:52.430Z,21.42
2022-12-18T14:59:01.142Z,25.92
2022-12-18T15:04:06.806Z,24.80
2022-12-18T15:09:27.078Z,25.17
2022-12-18T15:14:41.789Z,26.55
2022-12-18T15:19:48.216Z,26.45
2022-12-18T15:24:52.342Z,29.08
2022-12-18T15:30:08.188Z,30.88
2022-12-18T15:35:19.657Z,37.30
2022-12-18T15:40:25.101Z,33.63
2022-12-18T15:45:29.169Z,25.60
2022-12-18T15:50:32.595Z,27.95
2022-12-18T15:55:36.168Z,27.25
2022-12-18T16:00:41.755Z,28.35
2022-12-18T16:05:47.331Z,20.42
2022-12-18T16:10:51.433Z,23.05
2022-12-18T16:15:55.381Z,22.83
2022-12-18T16:21:00.005Z,20.60
2022-12-18T16:26:03.547Z,20.35
2022-12-18T16:31:09.156Z,18.15
2022-12-18T16:36:13.171Z,21.65
2022-12-18T16:41:21.419Z,22.50
2022-12-18T16:46:24.796Z,20.52
2022-12-18T16:51:29.124Z,14.32
2022-12-18T16:56:32.893Z,15.95
2022-12-18T17:01:36.551Z,11.18
2022-12-18T17:06:45.725Z,9.27
2022-12-18T17:11:49.325Z,8.32
2022-12-18T17:17:19.681Z,11.07
2022-12-18T17:22:17.855Z,6.25
2022-12-18T17:27:23.285Z,8.32
2022-12-18T17:32:27.323Z,5.40
2022-12-18T17:37:30.944Z,8.02
2022-12-18T17:42:34.843Z,4.10
2022-12-18T17:47:41.323Z,4.75
2022-12-18T17:52:47.548Z,5.72
2022-12-18T17:57:51.210Z,8.18
2022-12-18T18:02:54.974Z,5.50
2022-12-18T18:07:58.598Z,7.43
2022-12-18T18:13:01.930Z,5.07
2022-12-18T18:18:05.568Z,3.53
2022-12-18T18:23:08.919Z,5.78
2022-12-18T18:28:12.599Z,5.28
2022-12-18T18:33:16.166Z,4.05
2022-12-18T18:38:19.559Z,3.63
2022-12-18T18:43:23.011Z,4.38
2022-12-18T18:48:28.052Z,4.35
2022-12-18T18:53:41.817Z,2.60
2022-12-18T18:58:45.908Z,5.70
2022-12-18T19:03:49.924Z,4.20
2022-12-18T19:08:55.566Z,3.42
2022-12-18T19:14:00.700Z,4.45
2022-12-18T19:19:04.803Z,4.20
2022-12-18T19:24:10.200Z,4.78
2022-12-18T19:29:14.652Z,4.90
2022-12-18T19:34:18.311Z,5.72
2022-12-18T19:39:25.109Z,5.25
2022-12-18T19:44:28.940Z,4.47
2022-12-18T19:49:33.879Z,4.13
2022-12-18T19:54:40.954Z,8.00
2022-12-18T19:59:44.440Z,5.00
2022-12-18T20:04:49.422Z,6.80
2022-12-18T20:10:01.428Z,6.40
2022-12-18T20:15:08.505Z,6.32
2022-12-18T20:20:11.992Z,4.45
2022-12-18T20:25:17.084Z,5.20
2022-12-18T20:30:21.449Z,5.82
2022-12-18T20:35:24.928Z,5.47
2022-12-18T20:40:30.216Z,5.35
2022-12-18T20:45:33.771Z,7.40
2022-12-18T20:50:38.655Z,5.47
2022-12-18T20:55:44.923Z,7.47
2022-12-18T21:00:48.582Z,8.32
2022-12-18T21:05:52.178Z,5.40
2022-12-18T21:10:56.756Z,4.78
2022-12-18T21:16:02.109Z,11.55
2022-12-18T21:21:06.779Z,4.55
2022-12-18T21:26:23.434Z,8.60
2022-12-18T21:31:29.556Z,7.28
2022-12-18T21:36:34.720Z,5.95
2022-12-18T21:41:42.034Z,6.45
2022-12-18T21:46:51.512Z,8.10
2022-12-18T21:52:00.697Z,5.00
2022-12-18T21:57:08.466Z,4.53
2022-12-18T22:02:20.540Z,5.57
2022-12-18T22:07:24.251Z,4.18
2022-12-18T22:17:30.635Z,6.93
2022-12-18T22:22:33.936Z,6.10
2022-12-18T22:27:37.768Z,6.70
2022-12-18T22:32:41.036Z,3.80
2022-12-18T22:37:44.477Z,5.60
2022-12-18T22:42:47.860Z,7.95
2022-12-18T22:47:54.073Z,5.00
2022-12-18T22:52:57.464Z,5.47
2022-12-18T22:58:00.816Z,6.82
2022-12-18T23:03:04.786Z,5.78
2022-12-18T23:08:10.743Z,8.00
2022-12-18T23:13:14.267Z,5.07
2022-12-18T23:18:17.794Z,3.90
2022-12-18T23:23:21.208Z,5.65
2022-12-18T23:28:25.071Z,4.82
2022-12-18T23:33:30.497Z,5.43
2022-12-18T23:38:34.538Z,5.55
2022-12-18T23:43:38.590Z,6.57
2022-12-18T23:48:42.052Z,7.43
2022-12-18T23:53:45.674Z,5.18
2022-12-18T23:58:49.554Z,8.77
